sensor_id;sensor_type;location;lat;lon;timestamp;temperature;humidity
4451;DHT22;2238;50.180;9.230;2022-08-23T00:01:59;20.70;99.90
4451;DHT22;2238;50.180;9.230;2022-08-23T00:05:00;20.70;99.90
4451;DHT22;2238;50.180;9.230;2022-08-23T00:11:02;20.60;99.90
4451;DHT22;2238;50.180;9.230;2022-08-23T00:14:43;20.50;99.90
4451;DHT22;2238;50.180;9.230;2022-08-23T00:29:55;20.40;99.90
4451;DHT22;2238;50.180;9.230;2022-08-23T00:42:14;20.30;99.90
4451;DHT22;2238;50.180;9.230;2022-08-23T00:45:43;20.30;99.90
4451;DHT22;2238;50.180;9.230;2022-08-23T00:49:08;20.30;99.90
4451;DHT22;2238;50.180;9.230;2022-08-23T00:52:16;20.20;99.90
4451;DHT22;2238;50.180;9.230;2022-08-23T00:58:21;19.90;99.90
4451;DHT22;2238;50.180;9.230;2022-08-23T01:04:26;19.80;99.90
4451;DHT22;2238;50.180;9.230;2022-08-23T01:07:44;19.80;99.90
4451;DHT22;2238;50.180;9.230;2022-08-23T01:10:53;19.60;99.90
4451;DHT22;2238;50.180;9.230;2022-08-23T01:14:00;19.50;99.90
4451;DHT22;2238;50.180;9.230;2022-08-23T01:17:13;19.50;99.90
4451;DHT22;2238;50.180;9.230;2022-08-23T01:20:18;19.40;99.90
4451;DHT22;2238;50.180;9.230;2022-08-23T01:23:30;19.30;99.90
4451;DHT22;2238;50.180;9.230;2022-08-23T01:32:43;19.20;99.90
4451;DHT22;2238;50.180;9.230;2022-08-23T01:35:50;19.20;99.90
4451;DHT22;2238;50.180;9.230;2022-08-23T01:47:56;19.00;99.90
4451;DHT22;2238;50.180;9.230;2022-08-23T01:50:57;19.00;99.90
4451;DHT22;2238;50.180;9.230;2022-08-23T02:00:00;19.00;99.90
4451;DHT22;2238;50.180;9.230;2022-08-23T02:03:01;18.90;99.90
4451;DHT22;2238;50.180;9.230;2022-08-23T02:06:03;18.70;99.90
4451;DHT22;2238;50.180;9.230;2022-08-23T02:09:04;18.60;99.90
4451;DHT22;2238;50.180;9.230;2022-08-23T02:12:05;18.60;99.90
4451;DHT22;2238;50.180;9.230;2022-08-23T02:15:06;18.50;99.90
4451;DHT22;2238;50.180;9.230;2022-08-23T02:21:08;18.30;99.90
4451;DHT22;2238;50.180;9.230;2022-08-23T02:24:16;18.20;99.90
4451;DHT22;2238;50.180;9.230;2022-08-23T02:42:22;18.20;99.90
4451;DHT22;2238;50.180;9.230;2022-08-23T02:48:24;18.10;99.90
4451;DHT22;2238;50.180;9.230;2022-08-23T02:51:24;18.10;99.90
4451;DHT22;2238;50.180;9.230;2022-08-23T02:57:26;18.20;99.90
4451;DHT22;2238;50.180;9.230;2022-08-23T03:06:29;18.10;99.90
4451;DHT22;2238;50.180;9.230;2022-08-23T03:12:31;18.10;99.90
4451;DHT22;2238;50.180;9.230;2022-08-23T03:15:31;18.10;99.90
4451;DHT22;2238;50.180;9.230;2022-08-23T03:18:33;18.20;99.90
4451;DHT22;2238;50.180;9.230;2022-08-23T03:27:37;18.10;99.90
4451;DHT22;2238;50.180;9.230;2022-08-23T03:30:37;18.10;99.90
4451;DHT22;2238;50.180;9.230;2022-08-23T03:33:38;18.00;99.90
4451;DHT22;2238;50.180;9.230;2022-08-23T03:42:41;18.10;99.90
4451;DHT22;2238;50.180;9.230;2022-08-23T03:45:41;18.00;99.90
4451;DHT22;2238;50.180;9.230;2022-08-23T03:51:43;18.00;99.90
4451;DHT22;2238;50.180;9.230;2022-08-23T03:54:43;18.10;99.90
4451;DHT22;2238;50.180;9.230;2022-08-23T04:06:47;17.90;99.90
4451;DHT22;2238;50.180;9.230;2022-08-23T04:12:49;18.10;99.90
4451;DHT22;2238;50.180;9.230;2022-08-23T04:15:51;18.00;99.90
4451;DHT22;2238;50.180;9.230;2022-08-23T04:18:52;18.10;99.90
4451;DHT22;2238;50.180;9.230;2022-08-23T04:40:02;18.20;99.90
4451;DHT22;2238;50.180;9.230;2022-08-23T04:52:26;18.30;99.90
4451;DHT22;2238;50.180;9.230;2022-08-23T04:58:29;18.50;99.90
4451;DHT22;2238;50.180;9.230;2022-08-23T05:04:30;18.40;99.90
4451;DHT22;2238;50.180;9.230;2022-08-23T05:07:31;18.50;99.90
4451;DHT22;2238;50.180;9.230;2022-08-23T05:10:32;18.40;99.90
4451;DHT22;2238;50.180;9.230;2022-08-23T05:13:34;18.40;99.90
4451;DHT22;2238;50.180;9.230;2022-08-23T05:19:36;18.60;99.90
4451;DHT22;2238;50.180;9.230;2022-08-23T05:22:38;18.60;99.90
4451;DHT22;2238;50.180;9.230;2022-08-23T05:28:50;18.60;99.90
4451;DHT22;2238;50.180;9.230;2022-08-23T05:31:50;18.70;99.90
4451;DHT22;2238;50.180;9.230;2022-08-23T05:37:52;18.80;99.90
4451;DHT22;2238;50.180;9.230;2022-08-23T05:40:55;18.90;99.90
4451;DHT22;2238;50.180;9.230;2022-08-23T05:43:56;19.00;99.90
4451;DHT22;2238;50.180;9.230;2022-08-23T05:46:57;19.10;99.90
4451;DHT22;2238;50.180;9.230;2022-08-23T05:49:57;19.20;99.90
4451;DHT22;2238;50.180;9.230;2022-08-23T05:52:58;19.50;99.90
4451;DHT22;2238;50.180;9.230;2022-08-23T05:56:26;19.50;99.90
4451;DHT22;2238;50.180;9.230;2022-08-23T05:59:27;19.50;99.90
4451;DHT22;2238;50.180;9.230;2022-08-23T06:02:28;19.80;99.90
4451;DHT22;2238;50.180;9.230;2022-08-23T06:05:29;19.90;99.90
4451;DHT22;2238;50.180;9.230;2022-08-23T06:08:30;20.20;99.90
4451;DHT22;2238;50.180;9.230;2022-08-23T06:11:30;20.00;99.90
4451;DHT22;2238;50.180;9.230;2022-08-23T06:14:31;20.10;99.90
4451;DHT22;2238;50.180;9.230;2022-08-23T06:20:33;20.30;99.90
4451;DHT22;2238;50.180;9.230;2022-08-23T06:23:34;20.30;99.90
4451;DHT22;2238;50.180;9.230;2022-08-23T06:26:38;20.70;99.90
4451;DHT22;2238;50.180;9.230;2022-08-23T06:35:41;21.10;99.90
4451;DHT22;2238;50.180;9.230;2022-08-23T06:38:42;21.30;99.90
4451;DHT22;2238;50.180;9.230;2022-08-23T06:41:45;21.50;99.90
4451;DHT22;2238;50.180;9.230;2022-08-23T06:44:49;21.70;99.90
4451;DHT22;2238;50.180;9.230;2022-08-23T06:47:50;21.40;99.90
4451;DHT22;2238;50.180;9.230;2022-08-23T06:50:50;21.80;99.90
4451;DHT22;2238;50.180;9.230;2022-08-23T06:53:52;21.90;99.90
4451;DHT22;2238;50.180;9.230;2022-08-23T06:56:54;22.20;99.90
4451;DHT22;2238;50.180;9.230;2022-08-23T06:59:55;22.50;99.90
4451;DHT22;2238;50.180;9.230;2022-08-23T07:02:55;22.50;99.90
4451;DHT22;2238;50.180;9.230;2022-08-23T07:05:56;22.60;99.90
4451;DHT22;2238;50.180;9.230;2022-08-23T07:08:57;23.00;99.90
4451;DHT22;2238;50.180;9.230;2022-08-23T07:12:00;23.10;99.90
4451;DHT22;2238;50.180;9.230;2022-08-23T07:15:01;23.30;99.90
4451;DHT22;2238;50.180;9.230;2022-08-23T07:18:02;23.40;99.90
4451;DHT22;2238;50.180;9.230;2022-08-23T07:21:04;23.60;99.90
4451;DHT22;2238;50.180;9.230;2022-08-23T07:24:05;23.70;99.90
4451;DHT22;2238;50.180;9.230;2022-08-23T07:27:06;24.20;99.90
4451;DHT22;2238;50.180;9.230;2022-08-23T07:30:09;24.10;99.90
4451;DHT22;2238;50.180;9.230;2022-08-23T07:33:09;24.60;99.90
4451;DHT22;2238;50.180;9.230;2022-08-23T07:36:13;24.90;99.90
4451;DHT22;2238;50.180;9.230;2022-08-23T07:39:19;23.90;99.90
4451;DHT22;2238;50.180;9.230;2022-08-23T07:42:20;24.70;99.90
4451;DHT22;2238;50.180;9.230;2022-08-23T07:48:21;24.40;99.90
4451;DHT22;2238;50.180;9.230;2022-08-23T07:54:23;24.80;99.90
4451;DHT22;2238;50.180;9.230;2022-08-23T07:57:26;25.50;99.90
4451;DHT22;2238;50.180;9.230;2022-08-23T08:00:27;25.60;99.90
4451;DHT22;2238;50.180;9.230;2022-08-23T08:03:28;25.70;99.90
4451;DHT22;2238;50.180;9.230;2022-08-23T08:06:32;25.70;99.90
4451;DHT22;2238;50.180;9.230;2022-08-23T08:09:33;26.10;99.90
4451;DHT22;2238;50.180;9.230;2022-08-23T08:12:34;25.90;99.90
4451;DHT22;2238;50.180;9.230;2022-08-23T08:15:40;26.00;99.90
4451;DHT22;2238;50.180;9.230;2022-08-23T08:18:41;25.70;99.90
4451;DHT22;2238;50.180;9.230;2022-08-23T08:21:42;25.70;99.90
4451;DHT22;2238;50.180;9.230;2022-08-23T08:24:44;26.30;99.90
4451;DHT22;2238;50.180;9.230;2022-08-23T08:27:45;28.00;99.90
4451;DHT22;2238;50.180;9.230;2022-08-23T08:30:46;26.80;99.90
4451;DHT22;2238;50.180;9.230;2022-08-23T08:33:46;26.90;99.90
4451;DHT22;2238;50.180;9.230;2022-08-23T08:36:50;27.90;99.90
4451;DHT22;2238;50.180;9.230;2022-08-23T08:39:52;27.40;99.90
4451;DHT22;2238;50.180;9.230;2022-08-23T08:46:07;27.00;99.90
4451;DHT22;2238;50.180;9.230;2022-08-23T08:49:14;27.10;99.90
4451;DHT22;2238;50.180;9.230;2022-08-23T08:52:23;27.70;99.90
4451;DHT22;2238;50.180;9.230;2022-08-23T08:55:29;28.00;99.90
4451;DHT22;2238;50.180;9.230;2022-08-23T08:58:42;27.60;99.90
4451;DHT22;2238;50.180;9.230;2022-08-23T09:01:45;28.30;99.90
4451;DHT22;2238;50.180;9.230;2022-08-23T09:04:47;28.20;99.90
4451;DHT22;2238;50.180;9.230;2022-08-23T09:15:11;28.50;99.90
4451;DHT22;2238;50.180;9.230;2022-08-23T09:18:15;29.10;99.90
4451;DHT22;2238;50.180;9.230;2022-08-23T09:21:16;28.60;99.90
4451;DHT22;2238;50.180;9.230;2022-08-23T09:24:18;28.70;99.90
4451;DHT22;2238;50.180;9.230;2022-08-23T09:27:18;28.90;99.90
4451;DHT22;2238;50.180;9.230;2022-08-23T09:30:19;29.30;99.90
4451;DHT22;2238;50.180;9.230;2022-08-23T09:33:26;28.90;99.90
4451;DHT22;2238;50.180;9.230;2022-08-23T09:36:31;29.70;99.90
4451;DHT22;2238;50.180;9.230;2022-08-23T09:39:35;29.20;99.90
4451;DHT22;2238;50.180;9.230;2022-08-23T09:42:37;29.70;99.90
4451;DHT22;2238;50.180;9.230;2022-08-23T09:45:59;29.30;99.90
4451;DHT22;2238;50.180;9.230;2022-08-23T09:49:27;29.00;99.90
4451;DHT22;2238;50.180;9.230;2022-08-23T09:52:35;29.40;99.90
4451;DHT22;2238;50.180;9.230;2022-08-23T09:55:47;29.60;99.90
4451;DHT22;2238;50.180;9.230;2022-08-23T09:58:50;30.30;99.90
4451;DHT22;2238;50.180;9.230;2022-08-23T10:01:55;30.70;99.90
4451;DHT22;2238;50.180;9.230;2022-08-23T10:08:03;29.60;99.90
4451;DHT22;2238;50.180;9.230;2022-08-23T10:11:18;29.50;99.90
4451;DHT22;2238;50.180;9.230;2022-08-23T10:14:21;29.80;99.90
4451;DHT22;2238;50.180;9.230;2022-08-23T10:46:16;29.90;99.90
4451;DHT22;2238;50.180;9.230;2022-08-23T10:49:20;29.70;99.90
4451;DHT22;2238;50.180;9.230;2022-08-23T10:52:28;29.70;99.90
4451;DHT22;2238;50.180;9.230;2022-08-23T10:55:36;29.80;99.90
4451;DHT22;2238;50.180;9.230;2022-08-23T10:59:15;30.10;99.90
4451;DHT22;2238;50.180;9.230;2022-08-23T11:05:30;30.30;99.90
4451;DHT22;2238;50.180;9.230;2022-08-23T11:08:35;30.60;99.90
4451;DHT22;2238;50.180;9.230;2022-08-23T11:11:45;30.50;99.90
4451;DHT22;2238;50.180;9.230;2022-08-23T11:21:00;30.20;99.90
4451;DHT22;2238;50.180;9.230;2022-08-23T11:27:04;30.60;99.90
4451;DHT22;2238;50.180;9.230;2022-08-23T11:33:44;30.00;99.90
4451;DHT22;2238;50.180;9.230;2022-08-23T11:43:42;30.60;99.90
4451;DHT22;2238;50.180;9.230;2022-08-23T11:47:06;30.20;99.90
4451;DHT22;2238;50.180;9.230;2022-08-23T12:06:55;30.80;99.90
4451;DHT22;2238;50.180;9.230;2022-08-23T12:10:01;30.80;99.90
4451;DHT22;2238;50.180;9.230;2022-08-23T12:19:33;30.10;99.90
4451;DHT22;2238;50.180;9.230;2022-08-23T12:22:56;30.30;99.90
4451;DHT22;2238;50.180;9.230;2022-08-23T12:26:27;30.50;99.90
4451;DHT22;2238;50.180;9.230;2022-08-23T12:42:30;30.80;99.90
4451;DHT22;2238;50.180;9.230;2022-08-23T12:45:37;30.60;99.90
4451;DHT22;2238;50.180;9.230;2022-08-23T12:48:45;30.90;99.90
4451;DHT22;2238;50.180;9.230;2022-08-23T12:51:51;30.80;99.90
4451;DHT22;2238;50.180;9.230;2022-08-23T12:54:52;30.70;99.90
4451;DHT22;2238;50.180;9.230;2022-08-23T12:57:57;31.00;99.90
4451;DHT22;2238;50.180;9.230;2022-08-23T13:01:07;31.10;99.90
4451;DHT22;2238;50.180;9.230;2022-08-23T13:04:16;30.90;99.90
4451;DHT22;2238;50.180;9.230;2022-08-23T13:07:20;31.10;99.90
4451;DHT22;2238;50.180;9.230;2022-08-23T13:10:22;30.90;99.90
4451;DHT22;2238;50.180;9.230;2022-08-23T13:13:25;30.70;99.90
4451;DHT22;2238;50.180;9.230;2022-08-23T13:19:36;31.10;99.90
4451;DHT22;2238;50.180;9.230;2022-08-23T13:22:43;30.60;99.90
4451;DHT22;2238;50.180;9.230;2022-08-23T13:25:53;30.80;99.90
4451;DHT22;2238;50.180;9.230;2022-08-23T13:32:05;30.80;99.90
4451;DHT22;2238;50.180;9.230;2022-08-23T13:38:32;30.70;99.90
4451;DHT22;2238;50.180;9.230;2022-08-23T13:41:34;30.80;99.90
4451;DHT22;2238;50.180;9.230;2022-08-23T13:44:35;31.00;99.90
4451;DHT22;2238;50.180;9.230;2022-08-23T13:47:36;30.90;99.90
4451;DHT22;2238;50.180;9.230;2022-08-23T13:50:37;30.50;99.90
4451;DHT22;2238;50.180;9.230;2022-08-23T13:53:38;30.60;99.90
4451;DHT22;2238;50.180;9.230;2022-08-23T13:56:49;30.40;99.90
4451;DHT22;2238;50.180;9.230;2022-08-23T13:59:53;30.50;99.90
4451;DHT22;2238;50.180;9.230;2022-08-23T14:02:54;30.70;99.90
4451;DHT22;2238;50.180;9.230;2022-08-23T14:05:55;30.70;99.90
4451;DHT22;2238;50.180;9.230;2022-08-23T14:08:55;30.30;99.90
4451;DHT22;2238;50.180;9.230;2022-08-23T14:11:58;30.30;99.90
4451;DHT22;2238;50.180;9.230;2022-08-23T14:15:01;30.70;99.90
4451;DHT22;2238;50.180;9.230;2022-08-23T14:18:02;30.60;99.90
4451;DHT22;2238;50.180;9.230;2022-08-23T14:21:03;30.90;99.90
4451;DHT22;2238;50.180;9.230;2022-08-23T14:24:04;30.60;99.90
4451;DHT22;2238;50.180;9.230;2022-08-23T14:27:05;30.00;99.90
4451;DHT22;2238;50.180;9.230;2022-08-23T14:30:20;30.10;99.90
4451;DHT22;2238;50.180;9.230;2022-08-23T14:33:22;29.90;99.90
4451;DHT22;2238;50.180;9.230;2022-08-23T14:36:22;30.30;99.90
4451;DHT22;2238;50.180;9.230;2022-08-23T14:39:23;30.50;99.90
4451;DHT22;2238;50.180;9.230;2022-08-23T14:42:24;30.60;99.90
4451;DHT22;2238;50.180;9.230;2022-08-23T14:45:24;30.60;99.90
4451;DHT22;2238;50.180;9.230;2022-08-23T14:48:26;30.00;99.90
4451;DHT22;2238;50.180;9.230;2022-08-23T14:51:30;30.20;99.90
4451;DHT22;2238;50.180;9.230;2022-08-23T14:54:32;30.10;99.90
4451;DHT22;2238;50.180;9.230;2022-08-23T14:57:33;30.20;99.90
4451;DHT22;2238;50.180;9.230;2022-08-23T15:00:34;30.20;99.90
4451;DHT22;2238;50.180;9.230;2022-08-23T15:03:35;30.20;99.90
4451;DHT22;2238;50.180;9.230;2022-08-23T15:06:36;30.10;99.90
4451;DHT22;2238;50.180;9.230;2022-08-23T15:09:40;30.10;99.90
4451;DHT22;2238;50.180;9.230;2022-08-23T15:12:41;30.20;99.90
4451;DHT22;2238;50.180;9.230;2022-08-23T15:15:42;30.20;99.90
4451;DHT22;2238;50.180;9.230;2022-08-23T15:18:48;30.20;99.90
4451;DHT22;2238;50.180;9.230;2022-08-23T15:21:49;30.20;99.90
4451;DHT22;2238;50.180;9.230;2022-08-23T15:24:49;30.20;99.90
4451;DHT22;2238;50.180;9.230;2022-08-23T15:27:50;30.00;99.90
4451;DHT22;2238;50.180;9.230;2022-08-23T15:30:51;29.90;99.90
4451;DHT22;2238;50.180;9.230;2022-08-23T15:33:52;30.00;99.90
4451;DHT22;2238;50.180;9.230;2022-08-23T15:36:52;30.20;99.90
4451;DHT22;2238;50.180;9.230;2022-08-23T15:39:53;30.20;99.90
4451;DHT22;2238;50.180;9.230;2022-08-23T15:42:54;30.30;99.90
4451;DHT22;2238;50.180;9.230;2022-08-23T15:45:55;30.30;99.90
4451;DHT22;2238;50.180;9.230;2022-08-23T15:49:01;30.30;99.90
4451;DHT22;2238;50.180;9.230;2022-08-23T15:52:03;30.20;99.90
4451;DHT22;2238;50.180;9.230;2022-08-23T15:55:05;30.20;99.90
4451;DHT22;2238;50.180;9.230;2022-08-23T15:58:06;30.10;99.90
4451;DHT22;2238;50.180;9.230;2022-08-23T16:01:07;30.20;99.90
4451;DHT22;2238;50.180;9.230;2022-08-23T16:04:09;30.20;99.90
4451;DHT22;2238;50.180;9.230;2022-08-23T16:07:13;29.90;99.90
4451;DHT22;2238;50.180;9.230;2022-08-23T16:10:14;29.90;99.90
4451;DHT22;2238;50.180;9.230;2022-08-23T16:13:15;29.70;99.90
4451;DHT22;2238;50.180;9.230;2022-08-23T16:16:21;30.00;99.90
4451;DHT22;2238;50.180;9.230;2022-08-23T16:19:22;30.20;99.90
4451;DHT22;2238;50.180;9.230;2022-08-23T16:22:23;30.10;99.90
4451;DHT22;2238;50.180;9.230;2022-08-23T16:25:23;30.10;99.90
4451;DHT22;2238;50.180;9.230;2022-08-23T16:28:24;29.80;99.90
4451;DHT22;2238;50.180;9.230;2022-08-23T16:31:25;29.80;99.90
4451;DHT22;2238;50.180;9.230;2022-08-23T16:34:29;29.70;99.90
4451;DHT22;2238;50.180;9.230;2022-08-23T16:37:29;29.70;99.90
4451;DHT22;2238;50.180;9.230;2022-08-23T16:40:30;29.70;99.90
4451;DHT22;2238;50.180;9.230;2022-08-23T16:43:30;29.60;99.90
4451;DHT22;2238;50.180;9.230;2022-08-23T16:46:31;29.70;99.90
4451;DHT22;2238;50.180;9.230;2022-08-23T16:49:32;29.70;99.90
4451;DHT22;2238;50.180;9.230;2022-08-23T16:52:34;29.70;99.90
4451;DHT22;2238;50.180;9.230;2022-08-23T16:55:36;29.70;99.90
4451;DHT22;2238;50.180;9.230;2022-08-23T16:58:37;29.50;99.90
4451;DHT22;2238;50.180;9.230;2022-08-23T17:01:47;29.50;99.90
4451;DHT22;2238;50.180;9.230;2022-08-23T17:04:47;29.50;99.90
4451;DHT22;2238;50.180;9.230;2022-08-23T17:07:49;29.20;99.90
4451;DHT22;2238;50.180;9.230;2022-08-23T17:10:50;29.20;99.90
4451;DHT22;2238;50.180;9.230;2022-08-23T17:13:50;29.30;99.90
4451;DHT22;2238;50.180;9.230;2022-08-23T17:16:51;29.10;99.90
4451;DHT22;2238;50.180;9.230;2022-08-23T17:19:52;29.10;99.90
4451;DHT22;2238;50.180;9.230;2022-08-23T17:22:52;29.00;99.90
4451;DHT22;2238;50.180;9.230;2022-08-23T17:25:53;29.00;99.90
4451;DHT22;2238;50.180;9.230;2022-08-23T17:28:54;29.00;99.90
4451;DHT22;2238;50.180;9.230;2022-08-23T17:31:55;29.00;99.90
4451;DHT22;2238;50.180;9.230;2022-08-23T17:34:56;28.90;99.90
4451;DHT22;2238;50.180;9.230;2022-08-23T17:37:57;28.70;99.90
4451;DHT22;2238;50.180;9.230;2022-08-23T17:40:57;28.50;99.90
4451;DHT22;2238;50.180;9.230;2022-08-23T17:43:59;28.50;99.90
4451;DHT22;2238;50.180;9.230;2022-08-23T17:47:00;28.20;99.90
4451;DHT22;2238;50.180;9.230;2022-08-23T17:50:00;28.30;99.90
4451;DHT22;2238;50.180;9.230;2022-08-23T17:53:03;28.30;99.90
4451;DHT22;2238;50.180;9.230;2022-08-23T17:56:04;27.20;99.90
4451;DHT22;2238;50.180;9.230;2022-08-23T17:59:05;26.90;99.90
4451;DHT22;2238;50.180;9.230;2022-08-23T18:02:06;26.90;99.90
4451;DHT22;2238;50.180;9.230;2022-08-23T18:05:08;26.60;99.90
4451;DHT22;2238;50.180;9.230;2022-08-23T18:08:08;26.40;99.90
4451;DHT22;2238;50.180;9.230;2022-08-23T18:11:09;26.40;99.90
4451;DHT22;2238;50.180;9.230;2022-08-23T18:14:10;26.30;99.90
4451;DHT22;2238;50.180;9.230;2022-08-23T18:17:11;26.70;99.90
4451;DHT22;2238;50.180;9.230;2022-08-23T18:20:12;26.00;99.90
4451;DHT22;2238;50.180;9.230;2022-08-23T18:23:12;25.80;99.90
4451;DHT22;2238;50.180;9.230;2022-08-23T18:26:14;25.80;99.90
4451;DHT22;2238;50.180;9.230;2022-08-23T18:29:35;25.50;99.90
4451;DHT22;2238;50.180;9.230;2022-08-23T18:32:36;25.90;99.90
4451;DHT22;2238;50.180;9.230;2022-08-23T18:35:37;25.00;99.90
4451;DHT22;2238;50.180;9.230;2022-08-23T18:38:37;25.10;99.90
4451;DHT22;2238;50.180;9.230;2022-08-23T18:41:39;25.20;99.90
4451;DHT22;2238;50.180;9.230;2022-08-23T18:44:40;24.90;99.90
4451;DHT22;2238;50.180;9.230;2022-08-23T18:47:41;24.80;99.90
4451;DHT22;2238;50.180;9.230;2022-08-23T18:50:42;24.60;99.90
4451;DHT22;2238;50.180;9.230;2022-08-23T18:53:42;24.30;99.90
4451;DHT22;2238;50.180;9.230;2022-08-23T18:56:43;24.30;99.90
4451;DHT22;2238;50.180;9.230;2022-08-23T18:59:44;26.30;99.90
4451;DHT22;2238;50.180;9.230;2022-08-23T19:02:44;24.30;99.90
4451;DHT22;2238;50.180;9.230;2022-08-23T19:05:45;25.30;99.90
4451;DHT22;2238;50.180;9.230;2022-08-23T19:08:46;23.90;99.90
4451;DHT22;2238;50.180;9.230;2022-08-23T19:11:47;26.30;99.90
4451;DHT22;2238;50.180;9.230;2022-08-23T19:14:48;24.00;99.90
4451;DHT22;2238;50.180;9.230;2022-08-23T19:17:49;24.10;99.90
4451;DHT22;2238;50.180;9.230;2022-08-23T19:20:52;24.00;99.90
4451;DHT22;2238;50.180;9.230;2022-08-23T19:23:54;24.00;99.90
4451;DHT22;2238;50.180;9.230;2022-08-23T19:26:55;24.10;99.90
4451;DHT22;2238;50.180;9.230;2022-08-23T19:29:56;25.20;99.90
4451;DHT22;2238;50.180;9.230;2022-08-23T19:32:57;24.80;99.90
4451;DHT22;2238;50.180;9.230;2022-08-23T19:35:57;24.80;99.90
4451;DHT22;2238;50.180;9.230;2022-08-23T19:38:58;24.80;99.90
4451;DHT22;2238;50.180;9.230;2022-08-23T19:41:58;24.80;99.90
4451;DHT22;2238;50.180;9.230;2022-08-23T19:44:59;24.80;99.90
4451;DHT22;2238;50.180;9.230;2022-08-23T19:48:00;24.80;99.90
4451;DHT22;2238;50.180;9.230;2022-08-23T19:51:02;24.80;99.90
4451;DHT22;2238;50.180;9.230;2022-08-23T19:54:03;24.70;99.90
4451;DHT22;2238;50.180;9.230;2022-08-23T19:57:05;24.70;99.90
4451;DHT22;2238;50.180;9.230;2022-08-23T20:00:10;24.60;99.90
4451;DHT22;2238;50.180;9.230;2022-08-23T20:03:13;24.50;99.90
4451;DHT22;2238;50.180;9.230;2022-08-23T20:06:14;24.50;99.90
4451;DHT22;2238;50.180;9.230;2022-08-23T20:09:16;24.40;99.90
4451;DHT22;2238;50.180;9.230;2022-08-23T20:12:17;24.30;99.90
4451;DHT22;2238;50.180;9.230;2022-08-23T20:15:18;24.30;99.90
4451;DHT22;2238;50.180;9.230;2022-08-23T20:18:19;24.20;99.90
4451;DHT22;2238;50.180;9.230;2022-08-23T20:21:20;24.10;99.90
4451;DHT22;2238;50.180;9.230;2022-08-23T20:24:21;25.00;99.90
4451;DHT22;2238;50.180;9.230;2022-08-23T20:27:22;24.00;99.90
4451;DHT22;2238;50.180;9.230;2022-08-23T20:30:23;24.00;99.90
4451;DHT22;2238;50.180;9.230;2022-08-23T20:33:24;24.00;99.90
4451;DHT22;2238;50.180;9.230;2022-08-23T20:36:25;24.00;99.90
4451;DHT22;2238;50.180;9.230;2022-08-23T20:39:27;24.00;99.90
4451;DHT22;2238;50.180;9.230;2022-08-23T20:42:28;22.80;99.90
4451;DHT22;2238;50.180;9.230;2022-08-23T20:45:29;24.40;99.90
4451;DHT22;2238;50.180;9.230;2022-08-23T20:48:30;24.40;99.90
4451;DHT22;2238;50.180;9.230;2022-08-23T20:51:31;24.30;99.90
4451;DHT22;2238;50.180;9.230;2022-08-23T20:54:31;24.30;99.90
4451;DHT22;2238;50.180;9.230;2022-08-23T20:57:32;24.30;99.90
4451;DHT22;2238;50.180;9.230;2022-08-23T21:00:51;24.20;99.90
4451;DHT22;2238;50.180;9.230;2022-08-23T21:03:52;24.20;99.90
4451;DHT22;2238;50.180;9.230;2022-08-23T21:06:52;24.20;99.90
4451;DHT22;2238;50.180;9.230;2022-08-23T21:09:53;24.20;99.90
4451;DHT22;2238;50.180;9.230;2022-08-23T21:12:54;24.20;99.90
4451;DHT22;2238;50.180;9.230;2022-08-23T21:15:54;24.20;99.90
4451;DHT22;2238;50.180;9.230;2022-08-23T21:18:55;24.20;99.90
4451;DHT22;2238;50.180;9.230;2022-08-23T21:21:56;24.10;99.90
4451;DHT22;2238;50.180;9.230;2022-08-23T21:24:57;24.10;99.90
4451;DHT22;2238;50.180;9.230;2022-08-23T21:27:58;24.10;99.90
4451;DHT22;2238;50.180;9.230;2022-08-23T21:31:24;24.00;99.90
4451;DHT22;2238;50.180;9.230;2022-08-23T21:34:25;24.00;99.90
4451;DHT22;2238;50.180;9.230;2022-08-23T21:37:26;23.90;99.90
4451;DHT22;2238;50.180;9.230;2022-08-23T21:40:27;23.90;99.90
4451;DHT22;2238;50.180;9.230;2022-08-23T21:43:29;23.70;99.90
4451;DHT22;2238;50.180;9.230;2022-08-23T21:46:30;23.60;99.90
4451;DHT22;2238;50.180;9.230;2022-08-23T21:49:31;23.60;99.90
4451;DHT22;2238;50.180;9.230;2022-08-23T21:52:31;23.50;99.90
4451;DHT22;2238;50.180;9.230;2022-08-23T21:55:32;23.50;99.90
4451;DHT22;2238;50.180;9.230;2022-08-23T21:58:33;23.50;99.90
4451;DHT22;2238;50.180;9.230;2022-08-23T22:01:34;23.50;99.90
4451;DHT22;2238;50.180;9.230;2022-08-23T22:04:35;23.40;99.90
4451;DHT22;2238;50.180;9.230;2022-08-23T22:07:37;23.40;99.90
4451;DHT22;2238;50.180;9.230;2022-08-23T22:10:38;23.40;99.90
4451;DHT22;2238;50.180;9.230;2022-08-23T22:13:39;23.10;99.90
4451;DHT22;2238;50.180;9.230;2022-08-23T22:16:41;23.10;99.90
4451;DHT22;2238;50.180;9.230;2022-08-23T22:19:43;23.00;99.90
4451;DHT22;2238;50.180;9.230;2022-08-23T22:22:44;24.70;99.90
4451;DHT22;2238;50.180;9.230;2022-08-23T22:28:45;22.80;99.90
4451;DHT22;2238;50.180;9.230;2022-08-23T22:31:47;22.80;99.90
4451;DHT22;2238;50.180;9.230;2022-08-23T22:34:48;22.70;99.90
4451;DHT22;2238;50.180;9.230;2022-08-23T22:37:48;22.80;99.90
4451;DHT22;2238;50.180;9.230;2022-08-23T22:40:50;22.80;99.90
4451;DHT22;2238;50.180;9.230;2022-08-23T22:43:55;22.60;99.90
4451;DHT22;2238;50.180;9.230;2022-08-23T22:46:57;22.50;99.90
4451;DHT22;2238;50.180;9.230;2022-08-23T22:49:58;22.50;99.90
4451;DHT22;2238;50.180;9.230;2022-08-23T22:52:59;22.50;99.90
4451;DHT22;2238;50.180;9.230;2022-08-23T22:55:59;22.40;99.90
4451;DHT22;2238;50.180;9.230;2022-08-23T22:59:00;22.30;99.90
4451;DHT22;2238;50.180;9.230;2022-08-23T23:02:01;22.40;99.90
4451;DHT22;2238;50.180;9.230;2022-08-23T23:05:03;22.30;99.90
4451;DHT22;2238;50.180;9.230;2022-08-23T23:08:04;22.30;99.90
4451;DHT22;2238;50.180;9.230;2022-08-23T23:11:24;22.20;99.90
4451;DHT22;2238;50.180;9.230;2022-08-23T23:14:24;22.30;99.90
4451;DHT22;2238;50.180;9.230;2022-08-23T23:17:25;22.20;99.90
4451;DHT22;2238;50.180;9.230;2022-08-23T23:20:26;22.20;99.90
4451;DHT22;2238;50.180;9.230;2022-08-23T23:23:39;22.20;99.90
4451;DHT22;2238;50.180;9.230;2022-08-23T23:26:40;22.10;99.90
4451;DHT22;2238;50.180;9.230;2022-08-23T23:29:41;22.20;99.90
4451;DHT22;2238;50.180;9.230;2022-08-23T23:32:42;22.10;99.90
4451;DHT22;2238;50.180;9.230;2022-08-23T23:35:43;22.10;99.90
4451;DHT22;2238;50.180;9.230;2022-08-23T23:38:43;21.80;99.90
4451;DHT22;2238;50.180;9.230;2022-08-23T23:41:44;21.90;99.90
4451;DHT22;2238;50.180;9.230;2022-08-23T23:44:45;21.70;99.90
4451;DHT22;2238;50.180;9.230;2022-08-23T23:47:45;21.70;99.90
4451;DHT22;2238;50.180;9.230;2022-08-23T23:50:46;21.70;99.90
4451;DHT22;2238;50.180;9.230;2022-08-23T23:53:47;21.60;99.90
4451;DHT22;2238;50.180;9.230;2022-08-23T23:56:48;21.60;99.90
4451;DHT22;2238;50.180;9.230;2022-08-23T23:59:48;21.60;99.90
